Time;durP1;ratioP1;P1;durP2;ratioP2;P2;SDS_P1;SDS_P2;PMS_P1;PMS_P2;Temp;Humidity;BMP_temperature;BMP_pressure;BME280_temperature;BME280_humidity;BME280_pressure;Samples;Min_cycle;Max_cycle;Signal;HPM_P1;HPM_P2
2022/08/21 00:02:20;;;;;;;1.50;1.25;;;24.80;51.50;;;;;;5015875;28;96596;-83
2022/08/21 00:04:46;;;;;;;3.72;1.50;;;24.90;51.50;;;;;;5017895;28;98503;-83
2022/08/21 00:07:11;;;;;;;2.33;1.60;;;24.90;51.50;;;;;;5017160;27;92684;-82
2022/08/21 00:09:37;;;;;;;1.83;1.40;;;24.80;51.50;;;;;;5016876;27;92557;-83
2022/08/21 00:12:03;;;;;;;1.83;1.30;;;24.80;51.50;;;;;;5015928;27;92648;-83
2022/08/21 00:14:29;;;;;;;2.88;1.33;;;24.80;51.60;;;;;;5017042;27;93297;-83
2022/08/21 00:16:55;;;;;;;1.60;1.40;;;24.80;51.50;;;;;;5018007;28;92191;-83
2022/08/21 00:19:24;;;;;;;1.48;1.23;;;24.80;51.60;;;;;;5017092;27;91618;-82
2022/08/21 00:21:51;;;;;;;1.50;1.40;;;24.80;51.50;;;;;;5009490;28;93127;-82
2022/08/21 00:24:17;;;;;;;1.70;1.27;;;24.80;51.60;;;;;;5015895;28;92602;-83
2022/08/21 00:26:43;;;;;;;2.15;1.35;;;24.80;51.40;;;;;;5016924;27;93497;-83
2022/08/21 00:29:09;;;;;;;2.00;1.48;;;24.80;51.40;;;;;;5017372;28;92450;-83
2022/08/21 00:31:35;;;;;;;1.85;1.30;;;24.80;51.50;;;;;;5016145;28;92053;-83
2022/08/21 00:34:01;;;;;;;1.88;1.52;;;24.80;51.60;;;;;;5016331;27;93515;-82
2022/08/21 00:36:27;;;;;;;1.63;1.50;;;24.80;51.60;;;;;;5016176;28;91982;-83
2022/08/21 00:38:52;;;;;;;1.90;1.38;;;24.80;51.80;;;;;;5016689;27;92371;-83
2022/08/21 00:41:18;;;;;;;2.00;1.40;;;24.80;51.70;;;;;;5015036;27;96763;-82
2022/08/21 00:43:44;;;;;;;1.45;1.23;;;24.80;51.70;;;;;;5017574;28;93009;-82
2022/08/21 00:46:09;;;;;;;1.67;1.20;;;24.80;51.80;;;;;;5017434;27;92057;-83
2022/08/21 00:48:35;;;;;;;2.40;1.38;;;24.70;51.80;;;;;;5017210;27;92075;-82
2022/08/21 00:51:11;;;;;;;1.90;1.40;;;24.70;51.80;;;;;;5015321;28;93965;-83
2022/08/21 00:53:40;;;;;;;2.50;1.55;;;24.80;51.90;;;;;;5014392;27;97303;-83
2022/08/21 00:56:08;;;;;;;1.80;1.42;;;24.70;51.70;;;;;;5017633;28;92216;-82
2022/08/21 00:58:35;;;;;;;2.30;1.37;;;24.70;51.70;;;;;;5015558;27;92383;-82
2022/08/21 01:01:03;;;;;;;1.88;1.30;;;24.70;51.80;;;;;;5016194;27;93055;-83
2022/08/21 01:03:29;;;;;;;1.88;1.20;;;24.70;52.00;;;;;;5016426;28;92916;-83
2022/08/21 01:05:55;;;;;;;1.40;1.05;;;24.70;51.80;;;;;;5015953;28;92449;-83
2022/08/21 01:08:21;;;;;;;1.83;1.23;;;24.70;52.10;;;;;;5016722;27;91461;-83
2022/08/21 01:10:48;;;;;;;1.98;1.23;;;24.70;52.10;;;;;;5016524;28;93558;-82
2022/08/21 01:13:16;;;;;;;1.67;1.20;;;24.70;52.10;;;;;;5015852;27;92683;-83
2022/08/21 01:15:46;;;;;;;2.05;1.20;;;24.70;52.10;;;;;;5016323;28;93699;-83
2022/08/21 01:18:14;;;;;;;1.90;1.58;;;24.70;52.10;;;;;;5007257;27;92270;-82
2022/08/21 01:20:45;;;;;;;1.42;1.33;;;24.70;51.90;;;;;;5016931;27;93637;-82
2022/08/21 01:23:11;;;;;;;2.40;1.40;;;24.70;52.10;;;;;;5016455;28;93380;-83
2022/08/21 01:25:38;;;;;;;1.80;1.40;;;24.70;51.90;;;;;;5016908;27;92015;-82
2022/08/21 01:28:14;;;;;;;2.30;1.40;;;24.70;52.20;;;;;;5016776;27;92511;-82
2022/08/21 01:30:42;;;;;;;2.85;1.20;;;24.70;52.20;;;;;;5016135;28;93049;-82
2022/08/21 01:33:08;;;;;;;2.00;1.47;;;24.70;52.10;;;;;;5015488;27;92916;-82
2022/08/21 01:35:34;;;;;;;1.40;1.20;;;24.70;52.20;;;;;;5016166;28;92663;-82
2022/08/21 01:37:59;;;;;;;1.85;1.30;;;24.70;52.40;;;;;;5016319;28;92286;-83
2022/08/21 01:40:25;;;;;;;1.80;1.00;;;24.70;52.20;;;;;;5015775;27;94978;-82
2022/08/21 01:42:51;;;;;;;1.60;1.10;;;24.70;52.40;;;;;;5016129;28;93994;-82
2022/08/21 01:45:16;;;;;;;1.90;1.27;;;24.70;52.40;;;;;;5013945;28;92258;-82
2022/08/21 01:47:44;;;;;;;1.83;1.27;;;24.70;52.40;;;;;;5015772;27;91843;-82
2022/08/21 01:50:13;;;;;;;1.83;1.50;;;24.70;52.50;;;;;;5031515;28;96617;-83
2022/08/21 01:52:39;;;;;;;1.55;1.20;;;24.70;52.40;;;;;;5015307;28;92040;-82
2022/08/21 01:55:07;;;;;;;2.13;1.50;;;24.70;52.20;;;;;;5016571;27;92497;-82
2022/08/21 01:57:35;;;;;;;1.50;1.08;;;24.70;52.50;;;;;;5015873;28;91164;-83
2022/08/21 02:00:01;;;;;;;2.03;1.50;;;24.70;52.50;;;;;;5015755;27;93121;-83
2022/08/21 02:02:26;;;;;;;1.67;1.27;;;24.70;52.50;;;;;;5015601;28;92722;-84
2022/08/21 02:04:52;;;;;;;1.77;1.17;;;24.70;52.60;;;;;;5016868;28;93448;-82
2022/08/21 02:07:18;;;;;;;2.58;1.65;;;24.70;52.70;;;;;;5015194;27;92497;-83
2022/08/21 02:09:44;;;;;;;2.22;1.58;;;24.70;52.50;;;;;;5015576;27;93578;-83
2022/08/21 02:12:11;;;;;;;1.90;1.50;;;24.60;53.20;;;;;;5015781;28;92910;-82
2022/08/21 02:14:37;;;;;;;1.67;1.45;;;24.70;52.70;;;;;;5016245;28;92357;-82
2022/08/21 02:17:03;;;;;;;1.73;1.38;;;24.70;52.70;;;;;;5017144;28;92246;-83
2022/08/21 02:19:29;;;;;;;1.30;1.15;;;24.70;52.70;;;;;;5019767;27;93553;-83
2022/08/21 02:21:54;;;;;;;1.30;1.13;;;24.70;52.60;;;;;;5010610;27;93663;-83
2022/08/21 02:24:20;;;;;;;2.15;1.45;;;24.60;52.60;;;;;;5019674;28;92027;-83
2022/08/21 02:26:45;;;;;;;1.27;1.17;;;24.70;52.60;;;;;;5019392;28;92249;-83
2022/08/21 02:29:11;;;;;;;1.45;1.33;;;24.60;52.60;;;;;;5019216;28;93648;-83
2022/08/21 02:31:36;;;;;;;2.33;1.35;;;24.60;53.20;;;;;;5016076;28;96596;-83
2022/08/21 02:34:02;;;;;;;1.88;1.27;;;24.60;52.60;;;;;;5019106;27;92311;-82
2022/08/21 02:36:28;;;;;;;1.92;1.35;;;24.60;52.70;;;;;;5017995;27;91992;-83
2022/08/21 02:38:54;;;;;;;1.77;1.38;;;24.60;52.80;;;;;;5019418;27;92897;-83
2022/08/21 02:41:21;;;;;;;1.23;1.13;;;24.60;52.70;;;;;;5018943;28;93749;-82
2022/08/21 02:43:47;;;;;;;1.70;1.25;;;24.60;52.60;;;;;;5020469;28;92496;-82
2022/08/21 02:46:17;;;;;;;1.75;1.33;;;24.60;52.90;;;;;;5016643;28;91634;-83
2022/08/21 02:48:42;;;;;;;2.53;1.60;;;24.60;52.80;;;;;;5033962;27;96877;-82
2022/08/21 02:51:14;;;;;;;1.83;1.38;;;24.60;52.80;;;;;;5018326;27;92374;-83
2022/08/21 02:53:41;;;;;;;2.25;1.50;;;24.60;52.80;;;;;;5018155;28;93264;-83
2022/08/21 02:56:10;;;;;;;2.40;1.45;;;24.60;52.80;;;;;;5018748;28;92974;-83
2022/08/21 02:58:40;;;;;;;1.73;1.50;;;24.60;52.80;;;;;;5018543;28;93643;-82
2022/08/21 03:01:09;;;;;;;2.08;1.63;;;24.60;52.70;;;;;;5018518;28;93089;-83
2022/08/21 03:03:35;;;;;;;1.10;1.00;;;24.60;52.80;;;;;;5018469;27;92612;-82
2022/08/21 03:06:01;;;;;;;1.60;1.23;;;24.60;52.80;;;;;;5034040;27;92518;-82
2022/08/21 03:08:27;;;;;;;1.63;1.48;;;24.60;52.80;;;;;;5018131;27;93585;-83
2022/08/21 03:10:53;;;;;;;1.52;1.25;;;24.60;52.80;;;;;;5019076;28;93555;-82
2022/08/21 03:13:20;;;;;;;1.30;1.10;;;24.60;52.80;;;;;;5018371;27;92390;-83
2022/08/21 03:15:47;;;;;;;1.77;1.30;;;24.60;52.70;;;;;;5018989;27;92471;-82
2022/08/21 03:18:13;;;;;;;1.73;1.20;;;24.60;52.80;;;;;;5016894;27;94245;-83
2022/08/21 03:20:41;;;;;;;1.25;1.00;;;24.50;52.90;;;;;;5017150;27;93731;-83
2022/08/21 03:23:08;;;;;;;1.15;1.05;;;24.60;52.80;;;;;;5018537;28;92243;-82
2022/08/21 03:25:34;;;;;;;1.70;1.30;;;24.50;52.80;;;;;;5016337;28;92550;-82
2022/08/21 03:28:02;;;;;;;1.17;1.08;;;24.50;52.90;;;;;;5016274;27;92787;-82
2022/08/21 03:30:28;;;;;;;1.33;1.10;;;24.50;52.90;;;;;;5017571;27;92307;-83
2022/08/21 03:32:54;;;;;;;1.85;1.17;;;24.50;52.90;;;;;;5018280;28;91991;-83
2022/08/21 03:35:20;;;;;;;1.75;1.40;;;24.50;52.90;;;;;;5017538;27;91118;-83
2022/08/21 03:37:46;;;;;;;1.30;1.20;;;24.60;53.00;;;;;;5018510;28;93425;-82
2022/08/21 03:40:14;;;;;;;1.58;1.48;;;24.50;52.90;;;;;;5017804;28;92784;-83
2022/08/21 03:42:40;;;;;;;1.42;1.33;;;24.50;53.10;;;;;;5017383;28;92975;-83
2022/08/21 03:45:06;;;;;;;1.48;1.30;;;24.50;52.90;;;;;;5016921;28;92868;-83
2022/08/21 03:47:32;;;;;;;1.63;1.23;;;24.50;53.00;;;;;;5016511;27;93571;-83
2022/08/21 03:49:57;;;;;;;1.70;1.30;;;24.50;53.10;;;;;;5018862;28;92048;-82
2022/08/21 03:52:23;;;;;;;1.85;1.08;;;24.50;53.10;;;;;;5017206;27;92341;-82
2022/08/21 03:54:50;;;;;;;1.30;1.20;;;24.50;53.10;;;;;;5017196;27;92425;-82
2022/08/21 03:57:16;;;;;;;1.60;1.20;;;24.50;53.10;;;;;;5017216;27;93411;-83
2022/08/21 03:59:43;;;;;;;1.52;1.20;;;24.50;53.10;;;;;;5017128;28;92851;-82
2022/08/21 04:02:10;;;;;;;1.52;1.25;;;24.50;53.10;;;;;;5016607;28;93054;-83
2022/08/21 04:04:35;;;;;;;1.77;1.50;;;24.50;53.20;;;;;;5023273;27;92734;-84
2022/08/21 04:07:02;;;;;;;1.50;1.38;;;24.50;53.10;;;;;;5015094;28;96742;-83
2022/08/21 04:09:29;;;;;;;1.20;1.10;;;24.50;53.30;;;;;;5016435;27;93059;-83
2022/08/21 04:11:56;;;;;;;2.17;1.25;;;24.50;53.10;;;;;;5016788;28;94801;-82
2022/08/21 04:14:23;;;;;;;1.75;1.48;;;24.50;53.10;;;;;;5015514;27;91957;-82
2022/08/21 04:16:48;;;;;;;1.48;1.15;;;24.40;53.10;;;;;;5017012;28;93744;-83
2022/08/21 04:19:15;;;;;;;1.48;1.30;;;24.40;53.30;;;;;;5017321;27;93614;-82
2022/08/21 04:21:41;;;;;;;2.33;1.38;;;24.40;53.30;;;;;;5016418;28;91953;-83
2022/08/21 04:24:09;;;;;;;2.30;1.40;;;24.40;53.30;;;;;;5017532;27;91336;-82
2022/08/21 04:26:36;;;;;;;1.42;1.27;;;24.40;53.20;;;;;;5014684;27;96701;-83
2022/08/21 04:29:02;;;;;;;1.88;1.20;;;24.40;53.30;;;;;;5017272;28;93320;-82
2022/08/21 04:31:28;;;;;;;1.42;1.30;;;24.40;53.20;;;;;;5016338;27;92844;-83
2022/08/21 04:33:54;;;;;;;1.45;1.15;;;24.40;53.20;;;;;;5017582;27;91948;-83
2022/08/21 04:36:20;;;;;;;2.45;1.30;;;24.40;53.40;;;;;;5014954;28;96795;-82
2022/08/21 04:38:45;;;;;;;1.45;0.90;;;24.40;53.20;;;;;;5016954;28;92516;-83
2022/08/21 04:41:12;;;;;;;1.25;1.05;;;24.40;53.20;;;;;;5017389;28;92114;-82
2022/08/21 04:43:38;;;;;;;1.40;1.13;;;24.40;53.30;;;;;;5016713;28;92572;-82
2022/08/21 04:46:05;;;;;;;1.75;1.50;;;24.40;53.30;;;;;;5026566;28;94222;-83
2022/08/21 04:48:31;;;;;;;1.17;1.00;;;24.40;53.50;;;;;;5017068;27;92826;-83
2022/08/21 04:51:11;;;;;;;2.08;1.25;;;24.40;53.40;;;;;;5017052;28;92276;-83
2022/08/21 04:53:51;;;;;;;1.30;1.05;;;24.30;53.30;;;;;;5017085;28;92343;-83
2022/08/21 04:56:54;;;;;;;2.55;1.50;;;24.30;53.20;;;;;;5016440;27;94091;-83
2022/08/21 04:59:29;;;;;;;1.42;1.20;;;24.40;53.40;;;;;;5013602;28;94123;-83
2022/08/21 05:01:56;;;;;;;0.90;0.82;;;24.40;53.40;;;;;;5015277;28;92027;-83
2022/08/21 05:04:29;;;;;;;1.55;1.15;;;24.40;53.40;;;;;;5014262;28;92426;-83
2022/08/21 05:06:58;;;;;;;0.95;0.90;;;24.30;53.30;;;;;;5013802;28;93998;-82
2022/08/21 05:09:24;;;;;;;1.60;1.20;;;24.40;53.50;;;;;;5013896;28;93325;-83
2022/08/21 05:11:51;;;;;;;1.80;1.13;;;24.30;53.40;;;;;;5013290;28;92440;-83
2022/08/21 05:14:17;;;;;;;1.10;1.00;;;24.40;53.30;;;;;;5014654;28;91561;-83
2022/08/21 05:16:43;;;;;;;1.25;1.00;;;24.40;53.40;;;;;;5014641;28;94061;-82
2022/08/21 05:19:09;;;;;;;1.40;1.30;;;24.40;53.40;;;;;;5012760;28;92734;-82
2022/08/21 05:21:38;;;;;;;1.40;1.10;;;24.50;53.40;;;;;;4997208;28;93285;-83
2022/08/21 05:24:04;;;;;;;1.35;1.00;;;24.50;53.30;;;;;;4996652;28;92361;-83
2022/08/21 05:26:30;;;;;;;2.70;1.20;;;24.50;53.30;;;;;;4996703;28;96656;-83
2022/08/21 05:28:58;;;;;;;1.10;1.00;;;24.50;53.20;;;;;;5014357;28;92819;-84
2022/08/21 05:31:24;;;;;;;1.10;1.00;;;24.60;53.10;;;;;;5013386;28;92477;-83
2022/08/21 05:33:50;;;;;;;1.42;1.17;;;24.60;53.20;;;;;;5013505;28;91975;-82
2022/08/21 05:36:17;;;;;;;1.92;1.20;;;24.60;53.00;;;;;;5009773;28;96789;-83
2022/08/21 05:38:43;;;;;;;1.40;1.30;;;24.70;53.20;;;;;;5015607;28;93284;-83
2022/08/21 05:41:09;;;;;;;1.30;1.13;;;24.70;53.20;;;;;;5017679;28;92359;-82
2022/08/21 05:43:36;;;;;;;1.42;0.95;;;24.70;53.00;;;;;;5016496;27;91940;-82
2022/08/21 05:46:05;;;;;;;1.70;1.17;;;24.70;53.00;;;;;;5006095;28;93504;-83
2022/08/21 05:48:32;;;;;;;1.52;1.08;;;24.70;52.90;;;;;;5014920;28;93291;-83
2022/08/21 05:50:58;;;;;;;1.70;1.30;;;24.80;53.00;;;;;;5017423;28;92318;-82
2022/08/21 05:53:24;;;;;;;1.38;1.00;;;24.80;53.10;;;;;;5018836;27;92061;-83
2022/08/21 05:55:51;;;;;;;1.38;0.98;;;24.80;53.00;;;;;;5020698;28;92590;-82
2022/08/21 05:58:20;;;;;;;1.30;1.20;;;24.80;53.00;;;;;;5019981;27;92920;-82
2022/08/21 06:00:47;;;;;;;1.05;0.95;;;24.90;53.00;;;;;;5018948;27;92792;-82
2022/08/21 06:03:17;;;;;;;1.27;1.17;;;24.90;53.20;;;;;;5020310;27;91216;-82
2022/08/21 06:05:42;;;;;;;1.00;0.82;;;24.90;53.10;;;;;;5017651;28;96476;-83
2022/08/21 06:08:08;;;;;;;1.42;0.95;;;24.90;53.30;;;;;;5019831;28;92460;-82
2022/08/21 06:10:34;;;;;;;1.38;1.13;;;24.90;53.30;;;;;;5018324;27;93536;-82
2022/08/21 06:13:00;;;;;;;1.20;1.10;;;24.90;53.30;;;;;;5019732;28;92294;-83
2022/08/21 06:15:25;;;;;;;1.20;1.10;;;25.00;53.40;;;;;;5019450;27;92686;-83
2022/08/21 06:17:52;;;;;;;0.95;0.88;;;25.00;53.20;;;;;;5017920;28;92574;-84
2022/08/21 06:20:18;;;;;;;1.25;1.05;;;25.00;53.30;;;;;;5019773;27;92026;-82
2022/08/21 06:22:43;;;;;;;2.08;1.30;;;25.00;53.40;;;;;;5020038;28;91942;-83
2022/08/21 06:25:09;;;;;;;1.20;0.98;;;25.00;53.40;;;;;;5018723;27;92535;-82
2022/08/21 06:27:35;;;;;;;1.20;1.10;;;25.00;53.30;;;;;;5019531;27;93348;-82
2022/08/21 06:30:01;;;;;;;1.60;0.98;;;25.00;53.50;;;;;;5018772;27;91951;-83
2022/08/21 06:32:27;;;;;;;2.17;1.30;;;25.10;53.60;;;;;;5018491;27;92483;-83
2022/08/21 06:34:52;;;;;;;2.70;1.35;;;25.10;53.60;;;;;;5016528;28;93307;-82
2022/08/21 06:37:18;;;;;;;4.28;1.90;;;25.10;52.70;;;;;;5013710;27;93194;-82
2022/08/21 06:39:43;;;;;;;6.15;2.35;;;25.00;50.90;;;;;;5015031;28;92614;-82
2022/08/21 06:42:14;;;;;;;7.35;2.42;;;24.90;50.40;;;;;;5012168;28;92558;-82
2022/08/21 06:44:40;;;;;;;6.38;2.28;;;24.90;50.00;;;;;;5014143;27;93551;-83
2022/08/21 06:47:05;;;;;;;8.63;2.60;;;24.80;49.90;;;;;;5015087;28;94286;-83
2022/08/21 06:49:31;;;;;;;7.63;2.50;;;24.70;49.70;;;;;;5016273;28;92972;-83
2022/08/21 06:51:56;;;;;;;8.35;2.25;;;24.70;49.80;;;;;;5015513;27;91604;-81
2022/08/21 06:54:22;;;;;;;8.63;2.45;;;24.70;50.00;;;;;;5014824;28;93605;-82
2022/08/21 06:56:47;;;;;;;10.23;2.58;;;24.70;49.70;;;;;;5014635;28;92516;-83
2022/08/21 06:59:13;;;;;;;7.68;3.10;;;24.70;49.70;;;;;;5015823;28;93139;-83
2022/08/21 07:01:39;;;;;;;7.95;2.70;;;24.70;49.70;;;;;;5015740;27;92054;-82
2022/08/21 07:04:04;;;;;;;11.40;2.65;;;24.70;50.00;;;;;;5016207;27;93573;-82
2022/08/21 07:06:30;;;;;;;7.40;2.70;;;24.70;49.70;;;;;;5016165;27;94721;-83
2022/08/21 07:08:55;;;;;;;7.28;2.22;;;24.70;49.40;;;;;;5016739;28;91991;-82
2022/08/21 07:11:24;;;;;;;7.47;2.45;;;24.60;49.30;;;;;;5016004;27;92592;-82
2022/08/21 07:13:52;;;;;;;5.18;2.30;;;24.70;49.50;;;;;;5016227;28;92430;-83
2022/08/21 07:16:18;;;;;;;7.40;2.35;;;24.70;49.70;;;;;;5013887;27;92390;-82
2022/08/21 07:18:49;;;;;;;8.48;2.42;;;24.70;49.90;;;;;;5013827;27;92761;-84
2022/08/21 07:21:15;;;;;;;11.15;3.28;;;24.70;49.80;;;;;;5026212;27;92561;-81
2022/08/21 07:23:44;;;;;;;48.53;11.63;;;24.70;49.70;;;;;;5012607;28;94179;-82
2022/08/21 07:26:11;;;;;;;27.90;6.45;;;24.70;49.80;;;;;;5012312;28;93717;-81
2022/08/21 07:28:36;;;;;;;30.08;7.03;;;24.70;50.00;;;;;;5010874;27;92689;-82
2022/08/21 07:31:06;;;;;;;31.05;5.57;;;24.80;49.60;;;;;;5012078;28;91933;-81
2022/08/21 07:33:34;;;;;;;26.05;6.00;;;24.70;49.70;;;;;;5011870;27;93553;-80
2022/08/21 07:36:00;;;;;;;26.45;5.93;;;24.70;50.00;;;;;;5010365;28;95600;-80
2022/08/21 07:38:26;;;;;;;20.02;5.47;;;24.70;50.10;;;;;;5010317;28;92585;-83
2022/08/21 07:40:55;;;;;;;29.63;6.45;;;24.70;50.50;;;;;;5012194;28;91226;-80
2022/08/21 07:43:21;;;;;;;20.90;5.03;;;24.80;50.70;;;;;;5011393;27;92637;-81
2022/08/21 07:45:49;;;;;;;19.27;4.53;;;24.80;50.90;;;;;;5012926;27;95045;-81
2022/08/21 07:48:14;;;;;;;16.58;3.67;;;24.80;50.70;;;;;;5011352;28;93807;-81
2022/08/21 07:50:41;;;;;;;13.10;3.28;;;24.80;50.80;;;;;;4994458;27;92524;-81
2022/08/21 07:53:07;;;;;;;17.35;4.13;;;24.80;50.70;;;;;;5019709;28;93511;-82
2022/08/21 07:55:32;;;;;;;16.45;3.28;;;24.80;51.20;;;;;;5013187;27;92888;-82
2022/08/21 07:57:58;;;;;;;11.15;3.20;;;24.90;50.90;;;;;;5013154;27;92138;-81
2022/08/21 08:00:25;;;;;;;8.73;2.92;;;24.80;51.10;;;;;;5011123;27;92568;-81
2022/08/21 08:02:53;;;;;;;11.70;3.20;;;24.80;51.10;;;;;;5012463;28;96404;-80
2022/08/21 08:05:22;;;;;;;13.20;3.83;;;24.80;50.70;;;;;;5012203;27;92263;-81
2022/08/21 08:07:48;;;;;;;11.38;2.80;;;24.80;50.80;;;;;;5012706;28;92319;-81
2022/08/21 08:10:14;;;;;;;12.32;2.88;;;24.90;50.30;;;;;;5012599;27;92455;-83
2022/08/21 08:12:41;;;;;;;6.38;2.08;;;24.90;50.20;;;;;;5005585;27;96094;-81
2022/08/21 08:15:10;;;;;;;6.80;2.28;;;25.00;49.30;;;;;;4997510;28;92786;-81
2022/08/21 08:17:37;;;;;;;8.32;2.30;;;25.00;49.10;;;;;;5012161;28;91947;-82
2022/08/21 08:20:03;;;;;;;7.18;2.10;;;24.90;49.00;;;;;;5012606;28;92777;-81
2022/08/21 08:22:29;;;;;;;6.35;2.05;;;24.90;49.10;;;;;;5011409;27;93174;-80
2022/08/21 08:24:55;;;;;;;8.00;2.45;;;24.90;48.80;;;;;;5009748;27;94635;-81
2022/08/21 08:27:21;;;;;;;5.75;1.77;;;24.90;48.90;;;;;;5011213;28;92062;-81
2022/08/21 08:29:47;;;;;;;7.38;2.22;;;24.90;48.70;;;;;;5013392;28;92002;-81
2022/08/21 08:32:13;;;;;;;7.93;1.80;;;24.90;48.70;;;;;;5012790;28;92665;-83
2022/08/21 08:34:39;;;;;;;6.07;1.55;;;24.90;48.60;;;;;;5008630;28;92329;-81
2022/08/21 08:37:07;;;;;;;5.97;1.90;;;24.90;48.30;;;;;;5008882;28;94284;-82
2022/08/21 08:39:33;;;;;;;6.25;1.80;;;24.90;48.50;;;;;;5011986;27;91994;-81
2022/08/21 08:42:37;;;;;;;5.85;1.63;;;24.80;48.80;;;;;;5010970;27;92577;-82
2022/08/21 08:45:12;;;;;;;5.85;1.92;;;24.80;48.60;;;;;;5011262;28;93769;-81
2022/08/21 08:47:44;;;;;;;6.60;1.70;;;24.80;48.40;;;;;;5010868;28;91972;-81
2022/08/21 08:50:21;;;;;;;5.13;1.70;;;24.90;48.50;;;;;;5012195;28;92069;-81
2022/08/21 08:53:04;;;;;;;4.00;1.55;;;24.90;48.10;;;;;;5010805;28;96275;-81
2022/08/21 08:55:37;;;;;;;4.18;1.60;;;24.90;48.30;;;;;;5009535;27;92118;-82
2022/08/21 08:58:03;;;;;;;6.03;1.88;;;24.90;48.40;;;;;;5011380;28;92363;-80
2022/08/21 09:00:30;;;;;;;6.10;1.80;;;24.90;48.40;;;;;;5010832;28;92111;-81
2022/08/21 09:02:59;;;;;;;6.50;1.75;;;24.90;48.40;;;;;;5008616;28;96868;-81
2022/08/21 09:05:49;;;;;;;5.43;1.60;;;24.80;48.30;;;;;;5010318;28;92646;-81
2022/08/21 09:08:30;;;;;;;7.90;1.67;;;24.90;48.40;;;;;;5011803;28;92293;-81
2022/08/21 09:11:11;;;;;;;6.82;1.50;;;24.80;48.30;;;;;;5010739;28;92755;-82
2022/08/21 09:13:47;;;;;;;7.25;1.75;;;24.80;48.50;;;;;;5013523;28;93614;-82
2022/08/21 09:16:53;;;;;;;3.95;1.63;;;24.80;48.50;;;;;;5011960;28;92982;-83
2022/08/21 09:19:46;;;;;;;7.47;1.70;;;24.80;48.50;;;;;;5018033;27;92394;-82
2022/08/21 09:22:43;;;;;;;8.10;2.03;;;24.90;48.50;;;;;;5019679;28;92331;-81
2022/08/21 09:25:26;;;;;;;6.00;1.65;;;25.00;48.70;;;;;;5019672;27;93185;-82
2022/08/21 09:27:52;;;;;;;8.80;2.15;;;24.90;48.30;;;;;;5024486;27;93366;-81
2022/08/21 09:30:20;;;;;;;9.65;1.98;;;25.00;48.30;;;;;;5022972;27;93885;-82
2022/08/21 09:32:46;;;;;;;7.03;2.13;;;24.90;48.20;;;;;;5020220;27;92446;-81
2022/08/21 09:35:15;;;;;;;14.45;2.50;;;24.90;48.00;;;;;;5021555;28;93520;-82
2022/08/21 09:37:49;;;;;;;;;;;24.90;47.90;;;;;;5024107;28;97516;-82
2022/08/21 09:40:39;;;;;;;9.85;2.70;;;24.90;48.20;;;;;;5026219;28;92566;-82
2022/08/21 09:43:19;;;;;;;5.15;1.75;;;24.90;48.50;;;;;;5022772;28;92833;-81
2022/08/21 09:45:46;;;;;;;11.07;3.22;;;24.90;48.50;;;;;;5020333;28;92599;-81
2022/08/21 09:48:24;;;;;;;8.45;2.63;;;24.90;48.50;;;;;;5019380;27;92026;-81
2022/08/21 09:50:51;;;;;;;9.25;3.45;;;24.90;48.60;;;;;;5021914;28;92091;-81
2022/08/21 09:53:22;;;;;;;13.30;4.10;;;24.90;48.70;;;;;;5019340;28;92757;-82
2022/08/21 09:58:38;;;;;;;;;;;24.90;48.70;;;;;;5014480;27;93009;-81
2022/08/21 10:01:06;;;;;;;11.50;3.35;;;25.00;48.80;;;;;;5014023;27;92218;-81
2022/08/21 10:03:32;;;;;;;11.48;3.38;;;25.00;49.20;;;;;;5013719;28;92374;-80
2022/08/21 10:06:05;;;;;;;8.82;2.47;;;25.00;49.40;;;;;;5013300;27;92491;-80
2022/08/21 10:08:32;;;;;;;8.68;2.58;;;24.90;49.00;;;;;;5012540;28;93324;-81
2022/08/21 10:11:02;;;;;;;9.77;2.58;;;24.90;49.20;;;;;;5015406;28;91959;-81
2022/08/21 10:14:03;;;;;;;8.48;2.38;;;25.00;48.70;;;;;;5013447;27;91106;-80
2022/08/21 10:16:38;;;;;;;6.03;2.22;;;24.90;49.00;;;;;;5012269;28;93532;-81
2022/08/21 10:19:16;;;;;;;10.55;1.80;;;25.00;49.40;;;;;;5012945;28;92593;-80
2022/08/21 10:22:10;;;;;;;7.72;2.17;;;25.00;49.10;;;;;;5012981;27;93119;-80
2022/08/21 10:25:05;;;;;;;5.82;1.92;;;25.00;48.50;;;;;;5012780;28;92772;-80
2022/08/21 10:27:31;;;;;;;4.85;1.58;;;25.00;48.40;;;;;;5012307;28;93485;-81
2022/08/21 10:30:09;;;;;;;6.97;1.73;;;25.00;47.80;;;;;;5015210;28;92310;-82
2022/08/21 10:32:38;;;;;;;6.32;1.88;;;25.00;47.40;;;;;;5014810;27;92526;-80
2022/08/21 10:35:15;;;;;;;4.17;1.73;;;25.00;47.00;;;;;;5015288;28;92575;-81
2022/08/21 10:38:05;;;;;;;8.93;1.65;;;25.10;47.10;;;;;;5013012;28;97733;-81
2022/08/21 10:40:55;;;;;;;6.90;2.20;;;25.00;46.90;;;;;;5013984;28;93677;-81
2022/08/21 10:43:50;;;;;;;7.35;2.05;;;25.10;47.30;;;;;;5013387;28;92695;-81
2022/08/21 10:46:37;;;;;;;7.03;1.67;;;25.10;47.00;;;;;;5011880;28;92621;-81
2022/08/21 10:49:23;;;;;;;6.78;1.90;;;25.10;47.10;;;;;;5012262;27;94573;-81
2022/08/21 10:52:14;;;;;;;6.82;1.65;;;25.10;46.80;;;;;;5013106;28;94183;-81
2022/08/21 10:54:52;;;;;;;6.22;1.70;;;25.10;46.30;;;;;;5012644;27;92007;-81
2022/08/21 10:57:48;;;;;;;7.47;1.95;;;25.10;46.20;;;;;;5012884;28;92346;-81
2022/08/21 11:00:26;;;;;;;5.40;1.75;;;25.10;46.50;;;;;;5012005;27;93147;-81
2022/08/21 11:03:12;;;;;;;4.93;1.70;;;25.10;46.70;;;;;;5013752;28;93068;-81
2022/08/21 11:05:45;;;;;;;5.28;1.60;;;25.10;46.50;;;;;;5013559;27;92188;-80
2022/08/21 11:08:15;;;;;;;8.02;1.73;;;25.10;46.70;;;;;;5015011;28;91639;-81
2022/08/21 11:11:00;;;;;;;6.15;1.67;;;25.10;47.00;;;;;;5012169;27;93561;-80
2022/08/21 11:13:35;;;;;;;7.10;1.75;;;25.00;46.90;;;;;;5012082;28;92909;-81
2022/08/21 11:16:28;;;;;;;5.20;1.40;;;25.00;46.50;;;;;;5012309;27;93548;-80
2022/08/21 11:18:58;;;;;;;18.40;3.88;;;25.10;47.30;;;;;;5013289;28;92004;-81
2022/08/21 11:21:27;;;;;;;16.75;3.13;;;25.00;47.10;;;;;;5013277;27;92667;-79
2022/08/21 11:24:25;;;;;;;16.55;2.80;;;25.00;47.40;;;;;;5013741;27;92471;-80
2022/08/21 11:27:14;;;;;;;13.77;3.30;;;25.00;47.60;;;;;;5011877;28;92995;-80
2022/08/21 11:29:43;;;;;;;21.33;3.28;;;25.00;48.50;;;;;;5009805;28;92738;-80
2022/08/21 11:32:39;;;;;;;15.73;3.25;;;24.90;48.20;;;;;;5010650;28;92842;-80
2022/08/21 11:35:28;;;;;;;22.45;4.38;;;24.90;48.40;;;;;;5010295;28;97558;-80
2022/08/21 11:37:57;;;;;;;26.42;3.80;;;24.90;48.30;;;;;;5009831;28;92178;-80
2022/08/21 11:40:31;;;;;;;14.60;3.37;;;24.90;48.60;;;;;;5008864;28;92664;-80
2022/08/21 11:43:21;;;;;;;11.52;3.08;;;24.90;48.60;;;;;;5008961;28;94235;-81
2022/08/21 11:46:13;;;;;;;11.65;3.03;;;24.90;48.70;;;;;;5009498;28;93741;-80
2022/08/21 11:48:51;;;;;;;15.13;3.30;;;24.80;48.90;;;;;;4999348;28;92019;-81
2022/08/21 11:51:26;;;;;;;16.40;3.28;;;24.80;48.90;;;;;;5009865;28;92667;-80
2022/08/21 11:54:19;;;;;;;14.65;3.92;;;24.90;49.60;;;;;;5008536;28;94096;-80
2022/08/21 11:56:53;;;;;;;14.27;2.92;;;24.80;49.20;;;;;;5008912;28;93338;-80
2022/08/21 11:59:29;;;;;;;19.33;3.70;;;24.80;49.20;;;;;;5008967;28;92409;-80
2022/08/21 12:01:56;;;;;;;13.35;3.80;;;24.80;49.20;;;;;;5010434;28;91624;-81
2022/08/21 12:04:41;;;;;;;17.30;3.47;;;24.80;49.40;;;;;;5011883;28;92366;-82
2022/08/21 12:07:15;;;;;;;17.40;3.70;;;24.80;49.30;;;;;;5011363;28;94816;-81
2022/08/21 12:09:53;;;;;;;14.32;3.13;;;24.80;49.40;;;;;;5011850;27;93339;-81
2022/08/21 12:12:24;;;;;;;14.73;3.60;;;24.80;49.30;;;;;;5012626;28;92695;-82
2022/08/21 12:14:51;;;;;;;11.93;3.17;;;24.80;49.70;;;;;;5012074;28;93254;-81
2022/08/21 12:17:22;;;;;;;13.77;3.45;;;24.80;49.70;;;;;;5011987;27;92197;-82
2022/08/21 12:19:59;;;;;;;13.68;3.53;;;24.80;49.70;;;;;;5012675;28;92044;-82
2022/08/21 12:22:40;;;;;;;14.27;3.55;;;24.80;49.80;;;;;;5011754;27;92139;-82
2022/08/21 12:25:17;;;;;;;12.38;3.22;;;24.80;50.50;;;;;;5012285;28;93501;-81
2022/08/21 12:27:53;;;;;;;14.73;4.10;;;24.80;49.80;;;;;;5012308;27;92817;-82
2022/08/21 12:30:36;;;;;;;12.88;3.03;;;24.80;49.90;;;;;;5012882;27;92329;-81
2022/08/21 12:33:05;;;;;;;12.27;3.15;;;24.80;49.90;;;;;;5011653;28;92609;-82
2022/08/21 12:35:38;;;;;;;;;;;24.80;49.90;;;;;;5012159;27;93036;-80
2022/08/21 12:38:15;;;;;;;11.30;3.05;;;24.80;49.90;;;;;;5013476;28;93254;-82
2022/08/21 12:40:47;;;;;;;13.13;2.95;;;24.80;49.90;;;;;;5012230;28;91994;-82
2022/08/21 12:43:21;;;;;;;13.10;3.85;;;24.80;50.10;;;;;;5010572;27;92414;-82
2022/08/21 12:45:50;;;;;;;10.45;2.78;;;24.80;50.10;;;;;;5012426;28;92489;-82
2022/08/21 12:48:26;;;;;;;10.05;2.95;;;24.80;50.20;;;;;;5011667;28;92710;-81
2022/08/21 12:51:14;;;;;;;10.48;2.63;;;24.80;50.20;;;;;;5011576;28;92296;-82
2022/08/21 12:53:52;;;;;;;10.88;2.80;;;24.80;50.20;;;;;;5008549;28;91609;-82
2022/08/21 12:56:21;;;;;;;9.35;2.53;;;24.80;50.10;;;;;;5008069;28;93949;-81
2022/08/21 12:58:49;;;;;;;13.00;3.63;;;24.80;50.30;;;;;;5008682;28;93635;-81
2022/08/21 13:01:35;;;;;;;8.57;3.00;;;24.80;50.20;;;;;;5007010;28;93319;-81
2022/08/21 13:04:09;;;;;;;10.82;2.75;;;24.80;50.30;;;;;;5008466;28;92171;-82
2022/08/21 13:06:41;;;;;;;9.73;2.85;;;24.80;50.20;;;;;;5007016;28;93133;-81